Time;durP1;ratioP1;P1;durP2;ratioP2;P2;SDS_P1;SDS_P2;PMS_P1;PMS_P2;Temp;Humidity;BMP_temperature;BMP_pressure;BME280_temperature;BME280_humidity;BME280_pressure;Samples;Min_cycle;Max_cycle;Signal;HPM_P1;HPM_P2
2024/03/13 00:01:10;;;;;;;0.40;0.40;;;;;;;9.89;100.00;96239.75;5065572;28;20055;-67
2024/03/13 00:03:37;;;;;;;0.50;0.50;;;;;;;10.02;100.00;96260.38;5066068;28;20048;-68
2024/03/13 00:06:04;;;;;;;0.50;0.50;;;;;;;10.15;100.00;96274.72;5066055;28;20435;-68
2024/03/13 00:08:31;;;;;;;0.50;0.50;;;;;;;9.99;100.00;96261.16;5065188;28;20147;-68
2024/03/13 00:10:58;;;;;;;0.50;0.50;;;;;;;10.05;100.00;96270.66;5065843;28;20139;-68
2024/03/13 00:13:27;;;;;;;0.50;0.50;;;;;;;10.04;100.00;96279.34;5065570;28;20566;-68
2024/03/13 00:15:57;;;;;;;0.50;0.50;;;;;;;10.02;100.00;96265.91;5064289;28;20155;-69
2024/03/13 00:18:24;;;;;;;0.45;0.45;;;;;;;9.98;100.00;96250.47;5063962;28;20062;-68
2024/03/13 00:20:51;;;;;;;0.50;0.50;;;;;;;10.02;100.00;96265.91;5063830;28;20053;-67
2024/03/13 00:23:18;;;;;;;0.40;0.40;;;;;;;9.71;100.00;96216.72;5063974;28;20044;-67
2024/03/13 00:25:45;;;;;;;0.40;0.40;;;;;;;9.98;100.00;96258.78;5064340;28;20287;-68
2024/03/13 00:28:12;;;;;;;0.40;0.40;;;;;;;9.94;100.00;96261.50;5066118;28;20067;-68
2024/03/13 00:30:40;;;;;;;0.50;0.50;;;;;;;9.93;100.00;96262.69;5063901;28;20541;-68
2024/03/13 00:33:08;;;;;;;0.50;0.50;;;;;;;9.31;100.00;96169.81;5065408;28;20059;-68
2024/03/13 00:35:36;;;;;;;0.50;0.50;;;;;;;9.91;100.00;96265.03;5063450;28;20127;-68
2024/03/13 00:38:03;;;;;;;0.40;0.40;;;;;;;7.70;100.00;95910.56;5063962;28;20080;-68
2024/03/13 00:40:31;;;;;;;0.40;0.40;;;;;;;9.87;100.00;96261.47;5063540;28;20048;-67
2024/03/13 00:42:58;;;;;;;0.40;0.40;;;;;;;9.81;100.00;96254.72;5061006;28;20041;-68
2024/03/13 00:45:24;;;;;;;0.40;0.40;;;;;;;9.87;100.00;96258.72;5063126;28;20511;-68
2024/03/13 00:47:54;;;;;;;0.40;0.40;;;;;;;9.52;100.00;96219.72;5063591;28;20048;-68
2024/03/13 00:50:22;;;;;;;0.40;0.40;;;;;;;9.81;100.00;96254.72;5067113;28;20170;-68
2024/03/13 00:52:50;;;;;;;0.40;0.40;;;;;;;9.81;100.00;96260.25;5100413;28;20063;-67
2024/03/13 00:55:17;;;;;;;0.50;0.50;;;;;;;9.75;100.00;96255.47;5085303;28;20080;-68
2024/03/13 00:57:46;;;;;;;0.40;0.40;;;;;;;6.67;100.00;95758.44;5085030;28;20044;-69
2024/03/13 01:00:15;;;;;;;0.50;0.50;;;;;;;9.01;100.00;96122.22;5084712;28;20044;-68
2024/03/13 01:02:42;;;;;;;0.40;0.40;;;;;;;9.78;100.00;96252.72;5084491;28;20109;-68
2024/03/13 01:05:10;;;;;;;0.40;0.40;;;;;;;9.85;100.00;96250.00;5085014;28;20080;-68
2024/03/13 01:07:37;;;;;;;0.40;0.40;;;;;;;9.87;100.00;96249.59;5083778;28;20048;-68
2024/03/13 01:10:05;;;;;;;0.50;0.50;;;;;;;9.90;100.00;96244.09;5084855;28;20056;-68
2024/03/13 01:12:34;;;;;;;0.40;0.40;;;;;;;9.88;100.00;96249.22;5082899;28;20525;-68
2024/03/13 01:15:02;;;;;;;0.40;0.40;;;;;;;9.82;100.00;96245.22;5084825;28;20723;-68
2024/03/13 01:17:28;;;;;;;0.40;0.40;;;;;;;9.66;100.00;96213.53;5083928;28;20055;-68
2024/03/13 01:19:55;;;;;;;0.40;0.40;;;;;;;9.78;100.00;96238.91;5081977;28;20047;-68
2024/03/13 01:22:22;;;;;;;0.40;0.40;;;;;;;9.66;100.00;96241.94;5083302;28;20511;-68
2024/03/13 01:24:49;;;;;;;0.45;0.45;;;;;;;9.13;100.00;96235.19;5083030;28;20384;-68
2024/03/13 01:27:17;;;;;;;0.50;0.50;;;;;;;9.55;100.00;96241.06;5081562;28;20058;-69
2024/03/13 01:29:47;;;;;;;0.40;0.40;;;;;;;9.54;100.00;96239.50;5081874;28;20146;-68
2024/03/13 01:32:15;;;;;;;0.40;0.40;;;;;;;9.16;100.00;96162.59;5083886;28;20109;-68
2024/03/13 01:34:42;;;;;;;0.50;0.50;;;;;;;9.58;100.00;96229.25;5084528;28;20449;-68
2024/03/13 01:39:54;;;;;;;0.40;0.40;;;;;;;9.02;100.00;96190.91;5084645;28;20567;-68
2024/03/13 01:56:26;;;;;;;0.40;0.40;;;;;;;8.83;100.00;96157.19;5063128;28;20131;-68
2024/03/13 01:59:19;;;;;;;0.50;0.50;;;;;;;9.01;100.00;96202.31;5062039;28;20588;-69
2024/03/13 02:04:34;;;;;;;0.47;0.47;;;;;;;9.13;100.00;96224.16;5063721;28;20561;-69
2024/03/13 02:07:02;;;;;;;0.40;0.40;;;;;;;8.86;100.00;96184.03;5063467;28;20109;-69
2024/03/13 02:09:30;;;;;;;0.40;0.40;;;;;;;9.24;100.00;96216.75;5063605;28;20089;-68
2024/03/13 02:11:57;;;;;;;0.40;0.40;;;;;;;8.81;100.00;96179.66;5063673;28;20137;-69
2024/03/13 02:14:24;;;;;;;0.40;0.40;;;;;;;9.31;100.00;96213.25;5063853;28;20056;-69
2024/03/13 02:16:52;;;;;;;0.50;0.50;;;;;;;9.30;100.00;96214.41;5062274;28;20060;-68
2024/03/13 02:19:20;;;;;;;0.50;0.50;;;;;;;9.34;100.00;96221.59;5061872;28;20066;-68
2024/03/13 02:21:47;;;;;;;0.40;0.40;;;;;;;9.42;100.00;96219.66;5063018;28;20159;-68
2024/03/13 02:24:14;;;;;;;0.50;0.50;;;;;;;9.16;100.00;96187.47;5061759;28;20044;-69
2024/03/13 02:26:41;;;;;;;0.40;0.40;;;;;;;9.35;100.00;96225.91;5061537;28;20564;-68
2024/03/13 02:29:08;;;;;;;0.50;0.50;;;;;;;8.49;100.00;96083.91;5061400;28;20063;-69
2024/03/13 02:31:35;;;;;;;0.50;0.50;;;;;;;9.43;100.00;96226.75;5062913;28;20044;-68
2024/03/13 02:34:04;;;;;;;0.40;0.40;;;;;;;9.46;100.00;96226.81;5061315;28;20486;-69
2024/03/13 02:36:31;;;;;;;0.40;0.40;;;;;;;9.44;100.00;96233.91;5063093;28;20130;-68
2024/03/13 02:38:59;;;;;;;0.40;0.40;;;;;;;9.47;100.00;96230.38;5063364;28;20056;-68
2024/03/13 02:41:26;;;;;;;0.50;0.50;;;;;;;9.53;100.00;96235.13;5062331;28;20045;-68
2024/03/13 02:43:57;;;;;;;0.40;0.40;;;;;;;9.52;100.00;96228.03;5062421;28;20560;-68
2024/03/13 02:46:23;;;;;;;0.50;0.50;;;;;;;9.60;100.00;96229.66;5062493;28;20059;-69
2024/03/13 02:48:51;;;;;;;0.40;0.40;;;;;;;9.53;100.00;96235.13;5063048;28;20048;-68
2024/03/13 02:51:18;;;;;;;0.40;0.40;;;;;;;9.50;100.00;96227.59;5072449;28;20120;-69
2024/03/13 02:53:45;;;;;;;0.40;0.40;;;;;;;9.07;100.00;96173.97;5082850;28;20525;-68
2024/03/13 02:56:11;;;;;;;0.40;0.40;;;;;;;9.51;100.00;96240.28;5081177;28;20108;-68
2024/03/13 02:58:38;;;;;;;0.40;0.40;;;;;;;9.07;100.00;96159.38;5083198;28;20086;-68
2024/03/13 03:01:06;;;;;;;0.45;0.45;;;;;;;9.38;100.00;96241.72;5065299;28;20057;-69
2024/03/13 03:03:33;;;;;;;0.40;0.40;;;;;;;9.10;100.00;96189.00;5043401;28;20088;-68
2024/03/13 03:06:01;;;;;;;0.40;0.40;;;;;;;9.38;100.00;96227.13;5042764;28;20045;-69
2024/03/13 03:08:32;;;;;;;0.47;0.47;;;;;;;9.10;100.00;96231.22;5042149;28;20067;-68
2024/03/13 03:11:00;;;;;;;0.40;0.40;;;;;;;8.83;100.00;96237.25;5042528;28;20425;-68
2024/03/13 03:13:32;;;;;;;0.40;0.40;;;;;;;9.02;100.00;96228.78;5042283;28;20045;-69
2024/03/13 03:15:59;;;;;;;0.40;0.40;;;;;;;9.00;100.00;96226.41;5042644;28;20486;-68
2024/03/13 03:18:27;;;;;;;0.40;0.40;;;;;;;9.11;100.00;96226.50;5042498;28;20073;-69
2024/03/13 03:20:54;;;;;;;0.40;0.40;;;;;;;9.16;100.00;96229.72;5057611;28;20068;-68
2024/03/13 03:23:21;;;;;;;0.50;0.50;;;;;;;8.82;100.00;96169.41;5042276;28;20053;-68
2024/03/13 03:25:47;;;;;;;0.50;0.50;;;;;;;8.84;100.00;96178.09;5061162;28;20057;-68
2024/03/13 03:28:16;;;;;;;0.50;0.50;;;;;;;9.29;100.00;96238.50;5046468;28;20052;-69
2024/03/13 03:30:46;;;;;;;0.40;0.40;;;;;;;8.89;100.00;96158.41;5061625;28;20068;-68
2024/03/13 03:33:13;;;;;;;0.50;0.50;;;;;;;8.92;100.00;96168.69;5061580;28;20063;-68
2024/03/13 03:35:41;;;;;;;0.40;0.40;;;;;;;9.41;100.00;96240.97;5061284;28;20122;-69
2024/03/13 03:38:07;;;;;;;0.40;0.40;;;;;;;9.44;100.00;96237.44;5046462;28;20079;-68
2024/03/13 03:40:35;;;;;;;0.50;0.50;;;;;;;9.44;100.00;96242.97;5046420;28;20507;-68
2024/03/13 03:43:03;;;;;;;0.50;0.50;;;;;;;9.51;100.00;96237.50;5046833;28;20056;-68
2024/03/13 03:45:30;;;;;;;0.40;0.40;;;;;;;9.42;100.00;96250.84;5046333;28;20511;-68
2024/03/13 03:47:57;;;;;;;0.40;0.40;;;;;;;9.03;100.00;96225.63;5061607;28;20155;-69
2024/03/13 03:50:37;;;;;;;0.40;0.40;;;;;;;9.48;100.00;96245.78;5046359;28;20049;-68
2024/03/13 03:53:03;;;;;;;0.40;0.40;;;;;;;9.38;100.00;96247.25;5085038;28;20056;-67
2024/03/13 03:55:30;;;;;;;0.40;0.40;;;;;;;9.43;100.00;96246.91;5086399;28;20048;-68
2024/03/13 03:57:57;;;;;;;0.47;0.47;;;;;;;9.42;100.00;96242.53;5086531;28;20055;-69
2024/03/13 04:00:24;;;;;;;0.40;0.40;;;;;;;9.24;100.00;96208.47;5084550;28;20056;-68
2024/03/13 04:02:51;;;;;;;0.40;0.40;;;;;;;9.30;100.00;96223.50;5086175;28;20102;-69
2024/03/13 04:05:19;;;;;;;0.45;0.45;;;;;;;9.07;100.00;96193.31;5084522;28;20079;-68
2024/03/13 04:07:49;;;;;;;0.50;0.50;;;;;;;9.40;100.00;96238.59;5085735;28;20067;-68
2024/03/13 04:10:16;;;;;;;0.40;0.40;;;;;;;9.43;100.00;96238.63;5086055;28;20058;-69
2024/03/13 04:12:44;;;;;;;0.40;0.40;;;;;;;9.45;100.00;96233.50;5085473;28;20055;-68
2024/03/13 04:15:12;;;;;;;0.40;0.40;;;;;;;9.39;100.00;96237.78;5085564;28;20052;-69
2024/03/13 04:17:39;;;;;;;0.40;0.40;;;;;;;9.25;100.00;96225.84;5085630;28;20546;-69
2024/03/13 04:20:18;;;;;;;0.40;0.40;;;;;;;9.21;100.00;96237.63;5085573;28;20131;-68
2024/03/13 04:22:45;;;;;;;0.40;0.40;;;;;;;9.18;100.00;96238.38;5084192;28;20209;-69
2024/03/13 04:25:14;;;;;;;0.40;0.40;;;;;;;9.09;100.00;96237.13;5084808;28;20129;-69
2024/03/13 04:27:42;;;;;;;0.40;0.40;;;;;;;8.89;100.00;96216.41;5086655;28;20063;-69
2024/03/13 04:30:09;;;;;;;0.40;0.40;;;;;;;9.05;100.00;96239.06;5086311;28;20048;-69
2024/03/13 04:32:36;;;;;;;0.40;0.40;;;;;;;9.03;100.00;96242.22;5084493;28;20047;-68
2024/03/13 04:35:03;;;;;;;0.40;0.40;;;;;;;8.57;100.00;96195.94;5085378;28;20060;-68
2024/03/13 04:37:30;;;;;;;0.43;0.43;;;;;;;8.80;100.00;96238.03;5083182;28;20091;-68
2024/03/13 04:39:59;;;;;;;0.40;0.40;;;;;;;8.71;100.00;96232.00;5083403;28;20048;-69
2024/03/13 04:42:27;;;;;;;0.40;0.40;;;;;;;7.66;100.00;96063.28;5085039;28;20051;-70
2024/03/13 04:44:55;;;;;;;0.40;0.40;;;;;;;8.67;100.00;96236.69;5085232;28;20052;-69
2024/03/13 04:47:23;;;;;;;0.45;0.45;;;;;;;8.81;100.00;96236.84;5084843;28;20055;-69
2024/03/13 04:49:50;;;;;;;0.40;0.40;;;;;;;8.80;100.00;96238.03;5083588;28;20043;-69
2024/03/13 04:52:18;;;;;;;0.40;0.40;;;;;;;8.63;100.00;96188.94;5071038;28;20048;-69
2024/03/13 04:54:44;;;;;;;0.40;0.40;;;;;;;8.79;100.00;96192.22;5064707;28;20507;-69
2024/03/13 04:57:11;;;;;;;0.40;0.40;;;;;;;9.12;100.00;96250.16;5064880;28;20056;-69
2024/03/13 04:59:38;;;;;;;0.40;0.40;;;;;;;9.15;100.00;96254.97;5063402;28;20491;-70
2024/03/13 05:02:05;;;;;;;0.38;0.38;;;;;;;9.17;100.00;96252.59;5064683;28;20048;-68
2024/03/13 05:04:34;;;;;;;0.40;0.40;;;;;;;9.29;100.00;96260.63;5064620;28;20052;-69
2024/03/13 05:07:08;;;;;;;0.47;0.47;;;;;;;9.24;100.00;96236.09;5063718;28;20083;-68
2024/03/13 05:09:35;;;;;;;0.40;0.40;;;;;;;9.39;100.00;96254.38;5063605;28;20546;-67
2024/03/13 05:12:03;;;;;;;0.40;0.40;;;;;;;9.47;100.00;96253.25;5064742;28;20048;-68
2024/03/13 05:14:30;;;;;;;0.50;0.50;;;;;;;9.43;100.00;96249.69;5064489;28;20048;-68
2024/03/13 05:16:57;;;;;;;0.40;0.40;;;;;;;9.45;100.00;96247.34;5064152;28;20519;-68
2024/03/13 05:19:24;;;;;;;0.50;0.50;;;;;;;9.51;100.00;96240.28;5063821;28;20445;-67
2024/03/13 05:21:54;;;;;;;0.40;0.40;;;;;;;9.55;100.00;96241.06;5063898;28;21199;-67
2024/03/13 05:24:20;;;;;;;0.40;0.40;;;;;;;9.35;100.00;96253.56;5064159;28;20056;-68
2024/03/13 05:26:47;;;;;;;0.50;0.50;;;;;;;9.07;100.00;96220.16;5063795;28;20067;-68
2024/03/13 05:29:14;;;;;;;0.50;0.50;;;;;;;9.40;100.00;96250.44;5064066;28;20161;-69
2024/03/13 05:31:41;;;;;;;0.40;0.40;;;;;;;9.46;100.00;96254.44;5064205;28;20589;-68
2024/03/13 05:34:09;;;;;;;0.40;0.40;;;;;;;9.55;100.00;96252.13;5063359;28;20056;-68
2024/03/13 05:36:36;;;;;;;0.40;0.40;;;;;;;9.49;100.00;96252.88;5062580;28;20519;-68
2024/03/13 05:39:05;;;;;;;0.47;0.47;;;;;;;9.43;100.00;96244.16;5064393;28;20686;-69
2024/03/13 05:41:34;;;;;;;0.40;0.40;;;;;;;9.08;100.00;96172.00;5063962;28;20044;-69
2024/03/13 05:44:01;;;;;;;0.40;0.40;;;;;;;9.46;100.00;96196.41;5062296;28;20140;-68
2024/03/13 05:46:28;;;;;;;0.40;0.40;;;;;;;9.88;100.00;96260.28;5063373;28;20111;-68
2024/03/13 05:48:55;;;;;;;0.40;0.40;;;;;;;10.02;100.00;96265.91;5062528;28;20337;-69
2024/03/13 05:51:23;;;;;;;0.40;0.40;;;;;;;9.70;100.00;96237.25;5069102;28;20529;-69
2024/03/13 05:53:50;;;;;;;0.40;0.40;;;;;;;9.99;100.00;96254.84;5083893;28;20048;-69
2024/03/13 05:56:16;;;;;;;0.40;0.40;;;;;;;10.08;100.00;96256.13;5083643;28;20062;-69
2024/03/13 05:58:43;;;;;;;0.43;0.43;;;;;;;10.04;100.00;96241.44;5083596;28;20048;-69
2024/03/13 06:01:12;;;;;;;0.40;0.40;;;;;;;9.92;100.00;96216.06;5083631;28;20048;-70
2024/03/13 06:03:39;;;;;;;0.40;0.40;;;;;;;10.36;100.00;96261.81;5083736;28;20787;-68
2024/03/13 06:06:05;;;;;;;0.40;0.40;;;;;;;10.44;100.00;96262.63;5082867;28;20448;-68
2024/03/13 06:08:33;;;;;;;0.50;0.50;;;;;;;10.64;100.00;96270.25;5084289;28;20055;-68
2024/03/13 06:11:00;;;;;;;0.50;0.50;;;;;;;10.83;100.00;96254.50;5082598;28;20049;-69
2024/03/13 06:13:26;;;;;;;0.40;0.40;;;;;;;11.19;99.62;96262.47;5082080;28;20719;-69
2024/03/13 06:15:53;;;;;;;0.50;0.50;;;;;;;10.95;97.95;96187.63;5084167;28;20450;-69
2024/03/13 06:18:21;;;;;;;0.52;0.52;;;;;;;11.76;96.28;96277.25;5083443;28;20044;-69
2024/03/13 06:20:48;;;;;;;0.40;0.40;;;;;;;12.05;95.71;96276.03;5081714;28;20442;-69
2024/03/13 06:23:16;;;;;;;0.50;0.50;;;;;;;12.37;93.77;96278.75;5083110;28;20083;-68
2024/03/13 06:25:45;;;;;;;0.60;0.60;;;;;;;12.76;92.30;96277.44;5082349;28;20648;-69
2024/03/13 06:31:02;;;;;;;0.60;0.60;;;;;;;13.16;84.29;96278.88;5082758;28;20056;-69
2024/03/13 06:33:28;;;;;;;0.60;0.60;;;;;;;13.21;83.49;96220.84;5083132;28;20062;-68
2024/03/13 06:35:55;;;;;;;0.60;0.60;;;;;;;13.42;78.25;96279.09;5082372;28;20062;-69
2024/03/13 06:38:22;;;;;;;0.60;0.60;;;;;;;13.95;78.20;96272.34;5081389;28;20056;-69
2024/03/13 06:40:50;;;;;;;0.60;0.60;;;;;;;14.15;79.57;96284.50;5083314;28;20094;-68
2024/03/13 06:43:17;;;;;;;0.60;0.60;;;;;;;14.10;80.25;96226.47;5063635;28;20063;-76
2024/03/13 06:45:47;;;;;;;0.60;0.60;;;;;;;14.46;77.51;96250.00;5061005;28;20533;-65
2024/03/13 06:48:15;;;;;;;0.60;0.60;;;;;;;14.52;75.89;96270.63;5061910;28;20049;-66
2024/03/13 06:50:42;;;;;;;0.60;0.60;;;;;;;14.83;76.69;96286.19;5065912;28;20127;-71
2024/03/13 06:53:08;;;;;;;0.60;0.60;;;;;;;13.83;73.89;96311.81;5062134;28;20063;-63
2024/03/13 06:55:35;;;;;;;0.60;0.60;;;;;;;13.07;75.57;96226.47;5060597;28;20053;-66
2024/03/13 06:58:02;;;;;;;0.60;0.60;;;;;;;12.84;76.74;96279.00;5056973;28;20102;-74
2024/03/13 07:00:32;;;;;;;0.60;0.60;;;;;;;12.92;76.02;96240.81;5053894;28;20475;-68
2024/03/13 07:03:01;;;;;;;0.60;0.60;;;;;;;12.73;78.70;96281.03;5067851;28;20523;-65
2024/03/13 07:05:28;;;;;;;0.60;0.60;;;;;;;12.34;83.34;96305.34;5056778;28;20056;-72
2024/03/13 07:07:56;;;;;;;0.50;0.50;;;;;;;11.81;86.12;96210.22;5061926;28;20056;-63
2024/03/13 07:10:23;;;;;;;0.60;0.60;;;;;;;12.66;84.15;96321.94;5060447;28;20064;-73
2024/03/13 07:12:50;;;;;;;0.50;0.50;;;;;;;11.45;87.52;96231.63;5060571;28;20470;-68
2024/03/13 07:15:18;;;;;;;0.50;0.50;;;;;;;11.50;87.43;96249.84;5059579;28;20517;-76
2024/03/13 07:17:45;;;;;;;0.50;0.50;;;;;;;11.94;89.29;96311.31;5062215;28;20106;-74
2024/03/13 07:20:13;;;;;;;0.50;0.50;;;;;;;11.39;88.52;96205.50;5059371;28;20056;-70
2024/03/13 07:22:41;;;;;;;0.40;0.40;;;;;;;11.82;90.90;96311.72;5060340;28;20048;-64
2024/03/13 07:25:09;;;;;;;0.60;0.60;;;;;;;11.82;89.58;96281.22;5060698;28;20507;-68
2024/03/13 07:27:37;;;;;;;0.50;0.50;;;;;;;12.08;87.52;96314.09;5061799;28;20423;-71
2024/03/13 07:30:07;;;;;;;0.50;0.50;;;;;;;11.78;86.73;96310.91;5060944;28;20150;-70
2024/03/13 07:32:34;;;;;;;0.50;0.50;;;;;;;11.22;86.73;96177.75;5062045;28;20057;-70
2024/03/13 07:35:03;;;;;;;0.50;0.50;;;;;;;12.31;86.07;96311.69;5055861;28;20053;-72
2024/03/13 07:37:31;;;;;;;0.50;0.50;;;;;;;11.89;89.93;96311.72;5045490;28;20055;-64
2024/03/13 07:39:59;;;;;;;0.50;0.50;;;;;;;11.75;87.72;96318.06;5061313;28;20059;-67
2024/03/13 07:42:26;;;;;;;0.60;0.60;;;;;;;8.88;88.34;95815.22;5059917;28;20697;-75
2024/03/13 07:44:54;;;;;;;0.50;0.50;;;;;;;11.28;87.86;96120.72;5060445;28;20056;-68
2024/03/13 07:47:21;;;;;;;0.60;0.60;;;;;;;12.59;82.81;96278.28;5061233;28;20055;-75
2024/03/13 07:49:49;;;;;;;0.60;0.60;;;;;;;13.17;82.97;96314.59;5058594;28;20044;-69
2024/03/13 07:52:16;;;;;;;0.50;0.50;;;;;;;13.13;81.62;96279.69;5057993;28;20083;-69
2024/03/13 07:54:43;;;;;;;0.60;0.60;;;;;;;13.44;81.40;96287.84;5060368;28;20537;-62
2024/03/13 07:57:11;;;;;;;0.60;0.60;;;;;;;14.26;78.19;96318.66;5060616;28;21589;-73
2024/03/13 07:59:40;;;;;;;0.60;0.60;;;;;;;14.41;74.04;96281.09;5059941;28;20048;-66
2024/03/13 08:02:08;;;;;;;0.60;0.60;;;;;;;14.00;70.26;96230.16;5057189;28;20135;-73
2024/03/13 08:04:36;;;;;;;0.60;0.60;;;;;;;14.31;70.89;96184.47;5059543;28;20056;-68
2024/03/13 08:07:04;;;;;;;0.60;0.60;;;;;;;15.17;66.38;96317.69;5061136;28;20137;-66
2024/03/13 08:09:48;;;;;;;0.70;0.70;;;;;;;14.66;68.00;96209.16;5064606;28;20435;-70
2024/03/13 08:12:32;;;;;;;0.68;0.68;;;;;;;14.98;68.98;96280.03;5063110;28;20079;-71
2024/03/13 08:15:16;;;;;;;0.65;0.65;;;;;;;14.15;68.38;96301.19;5055433;28;20055;-67
2024/03/13 08:18:00;;;;;;;0.70;0.70;;;;;;;13.88;68.86;96319.75;5064530;28;20047;-71
2024/03/13 08:20:51;;;;;;;0.60;0.60;;;;;;;12.73;72.34;96150.41;5077384;28;20059;-72
2024/03/13 08:23:35;;;;;;;0.60;0.60;;;;;;;13.37;68.81;96196.06;5064873;28;20181;-67
2024/03/13 08:26:20;;;;;;;0.68;0.68;;;;;;;15.00;67.71;96318.69;5063607;28;20121;-71
2024/03/13 08:29:04;;;;;;;0.70;0.70;;;;;;;14.74;66.00;96250.47;5063977;28;20043;-67
2024/03/13 08:31:50;;;;;;;0.70;0.70;;;;;;;15.33;64.29;96315.06;5064108;28;20252;-64
2024/03/13 08:34:34;;;;;;;0.70;0.70;;;;;;;15.15;62.61;96278.25;5063383;28;20093;-69
2024/03/13 08:37:18;;;;;;;0.70;0.70;;;;;;;14.75;61.19;96312.56;5063651;28;20431;-65
2024/03/13 08:40:06;;;;;;;0.60;0.60;;;;;;;14.57;62.63;96314.78;5063781;28;20044;-63
2024/03/13 08:42:51;;;;;;;0.70;0.70;;;;;;;14.48;61.46;96197.44;5065271;28;20105;-64
2024/03/13 08:45:35;;;;;;;0.60;0.60;;;;;;;15.75;61.60;96300.53;5064533;28;20119;-68
2024/03/13 08:48:25;;;;;;;0.70;0.70;;;;;;;15.61;58.89;96297.16;5055347;28;20087;-64
2024/03/13 08:51:12;;;;;;;0.70;0.70;;;;;;;15.31;58.88;96197.50;5063537;28;20118;-66
2024/03/13 08:53:56;;;;;;;0.73;0.73;;;;;;;15.82;59.26;96219.44;5060788;28;20659;-67
2024/03/13 08:56:42;;;;;;;0.70;0.70;;;;;;;15.55;56.34;96174.03;5062454;28;20088;-65
2024/03/13 08:59:26;;;;;;;0.60;0.60;;;;;;;16.12;56.43;96250.03;5063213;28;20173;-67
2024/03/13 09:02:10;;;;;;;0.70;0.70;;;;;;;16.67;55.78;96285.03;5062018;28;20068;-65
2024/03/13 09:04:55;;;;;;;0.70;0.70;;;;;;;17.36;55.21;96315.59;5063830;28;20108;-69
2024/03/13 09:07:40;;;;;;;0.70;0.70;;;;;;;17.21;53.38;96275.94;5062898;28;20102;-68
2024/03/13 09:10:07;;;;;;;0.80;0.80;;;;;;;17.72;54.90;96305.25;5058737;28;20536;-67
2024/03/13 09:12:34;;;;;;;0.70;0.70;;;;;;;17.96;53.67;96310.28;5067102;28;20068;-65
2024/03/13 09:15:01;;;;;;;0.70;0.70;;;;;;;16.98;54.49;96247.22;5060075;28;20063;-67
2024/03/13 09:17:28;;;;;;;0.70;0.70;;;;;;;18.10;53.27;96314.75;5063067;28;20522;-70
2024/03/13 09:19:55;;;;;;;0.80;0.80;;;;;;;17.92;51.09;96235.94;5059193;28;20037;-65
2024/03/13 09:22:22;;;;;;;0.80;0.80;;;;;;;17.98;52.72;96301.44;5057964;28;20475;-71
2024/03/13 09:24:50;;;;;;;0.80;0.80;;;;;;;17.33;50.52;96176.50;5061737;28;20052;-68
2024/03/13 09:27:17;;;;;;;0.70;0.70;;;;;;;17.67;52.83;96197.28;5061181;28;20076;-71
2024/03/13 09:29:44;;;;;;;0.70;0.70;;;;;;;18.56;51.55;96308.81;5062473;28;20079;-70
2024/03/13 09:32:11;;;;;;;0.80;0.80;;;;;;;18.34;49.89;96285.31;5061476;28;20049;-66
2024/03/13 09:34:38;;;;;;;0.80;0.80;;;;;;;18.14;50.26;96312.66;5062038;28;20056;-69
2024/03/13 09:37:07;;;;;;;0.70;0.70;;;;;;;17.90;51.17;96272.00;5074492;28;20138;-71
2024/03/13 09:39:36;;;;;;;0.70;0.70;;;;;;;18.08;51.51;96289.94;5063021;28;20045;-70
2024/03/13 09:42:14;;;;;;;0.70;0.70;;;;;;;17.39;51.93;96253.94;5061514;28;20044;-68
2024/03/13 09:44:47;;;;;;;0.63;0.63;;;;;;;17.57;51.39;96282.38;5046105;28;20048;-68
2024/03/13 09:47:14;;;;;;;0.70;0.70;;;;;;;17.27;51.61;96268.63;5062838;28;20471;-75
2024/03/13 09:49:42;;;;;;;0.70;0.70;;;;;;;16.70;52.06;96270.97;5061026;28;20044;-69
2024/03/13 09:52:14;;;;;;;0.70;0.70;;;;;;;16.63;53.29;96312.28;5061100;28;21273;-70
2024/03/13 09:54:43;;;;;;;0.70;0.70;;;;;;;16.81;52.32;96285.56;5062267;28;20059;-67
2024/03/13 09:57:11;;;;;;;0.70;0.70;;;;;;;17.06;51.36;96268.25;5060843;28;20056;-69
2024/03/13 09:59:38;;;;;;;0.80;0.80;;;;;;;17.26;51.51;96316.63;5061948;28;20051;-73
2024/03/13 10:02:14;;;;;;;0.80;0.80;;;;;;;17.40;51.09;96305.13;5061708;28;20507;-72
2024/03/13 10:04:42;;;;;;;0.70;0.70;;;;;;;17.27;49.97;96228.63;5060359;28;20052;-72
2024/03/13 10:07:17;;;;;;;0.70;0.70;;;;;;;16.89;49.03;96161.09;5055265;28;20051;-71
2024/03/13 10:09:47;;;;;;;0.70;0.70;;;;;;;17.09;49.94;96217.81;5061515;28;20143;-69
2024/03/13 10:12:20;;;;;;;0.70;0.70;;;;;;;17.55;49.80;96301.63;5060258;28;20426;-74
2024/03/13 10:14:52;;;;;;;0.70;0.70;;;;;;;16.57;49.72;96181.34;5062253;28;20044;-73
2024/03/13 10:17:24;;;;;;;0.80;0.80;;;;;;;17.24;51.16;96247.09;5062837;28;20071;-72
2024/03/13 10:19:54;;;;;;;0.70;0.70;;;;;;;17.35;50.39;96292.44;5060254;28;20110;-70
2024/03/13 10:22:21;;;;;;;0.70;0.70;;;;;;;17.41;48.24;96233.91;5061393;28;20048;-70
2024/03/13 10:24:51;;;;;;;0.60;0.60;;;;;;;18.04;49.70;96294.06;5059952;28;20051;-71
2024/03/13 10:27:20;;;;;;;0.70;0.70;;;;;;;18.00;48.54;96282.16;5061374;28;20567;-70
2024/03/13 10:29:52;;;;;;;0.70;0.70;;;;;;;17.44;48.80;96196.63;5062399;28;20050;-76
2024/03/13 10:32:20;;;;;;;0.73;0.73;;;;;;;18.16;48.90;96287.78;5060914;28;20055;-68
2024/03/13 10:34:49;;;;;;;0.70;0.70;;;;;;;17.92;48.01;96286.38;5058579;28;20092;-79
2024/03/13 10:37:18;;;;;;;0.70;0.70;;;;;;;17.19;49.17;96238.41;5077323;28;20053;-70
2024/03/13 10:39:45;;;;;;;0.70;0.70;;;;;;;17.10;49.24;96258.59;5061721;28;20485;-75
2024/03/13 10:42:12;;;;;;;0.70;0.70;;;;;;;16.74;49.80;96206.59;5061738;28;20049;-73
2024/03/13 10:44:40;;;;;;;0.70;0.70;;;;;;;17.10;49.30;96285.78;5075379;28;20117;-71
2024/03/13 10:47:09;;;;;;;0.68;0.68;;;;;;;17.21;49.50;96280.75;5059637;28;20052;-75
2024/03/13 10:49:36;;;;;;;0.68;0.68;;;;;;;17.18;49.69;96284.41;5060546;28;20537;-71
2024/03/13 10:52:08;;;;;;;0.75;0.75;;;;;;;17.31;50.15;96274.13;5061633;28;20843;-74
2024/03/13 10:54:35;;;;;;;0.70;0.70;;;;;;;16.70;48.44;96147.13;5052563;28;20053;-70
2024/03/13 10:57:02;;;;;;;0.70;0.70;;;;;;;17.69;48.52;96269.69;5061972;28;20109;-69
2024/03/13 10:59:31;;;;;;;0.70;0.70;;;;;;;16.96;48.67;96190.94;5042112;28;20077;-72
2024/03/13 11:01:57;;;;;;;0.70;0.70;;;;;;;17.69;46.98;96278.09;5060090;28;20554;-67
2024/03/13 11:04:26;;;;;;;0.80;0.80;;;;;;;17.29;49.37;96242.97;5056001;28;20049;-69
2024/03/13 11:06:54;;;;;;;0.70;0.70;;;;;;;17.40;48.78;96271.53;5052015;28;20722;-72
2024/03/13 11:09:21;;;;;;;0.70;0.70;;;;;;;17.12;49.30;96199.38;5055648;28;20064;-76
2024/03/13 11:11:51;;;;;;;0.70;0.70;;;;;;;17.82;51.42;96259.38;5056891;28;20044;-70
2024/03/13 11:14:20;;;;;;;0.70;0.70;;;;;;;17.94;50.49;96265.06;5054814;28;20074;-68
2024/03/13 11:16:54;;;;;;;0.70;0.70;;;;;;;18.05;47.74;96267.66;5059363;28;20060;-71
2024/03/13 11:19:29;;;;;;;0.70;0.70;;;;;;;17.73;50.11;96225.59;5060789;28;20060;-73
2024/03/13 11:22:01;;;;;;;0.70;0.70;;;;;;;17.94;52.31;96251.06;5071358;28;20065;-71
2024/03/13 11:24:32;;;;;;;0.70;0.70;;;;;;;18.20;51.99;96274.47;5060951;28;20114;-76
2024/03/13 11:27:15;;;;;;;0.70;0.70;;;;;;;18.01;51.64;96230.50;5061680;28;20059;-75
2024/03/13 11:29:48;;;;;;;0.70;0.70;;;;;;;17.80;52.69;96259.03;5061388;28;20057;-69
2024/03/13 11:32:16;;;;;;;;;;;;;;;17.75;52.54;96251.16;5060017;28;20051;-72
2024/03/13 11:34:43;;;;;;;0.70;0.70;;;;;;;17.57;54.39;96261.97;5060309;28;19931;-73
2024/03/13 11:37:11;;;;;;;0.70;0.70;;;;;;;17.42;53.90;96207.50;5062077;28;20123;-72
2024/03/13 11:39:40;;;;;;;0.70;0.70;;;;;;;17.85;46.92;96252.91;5062125;28;20131;-65
2024/03/13 11:42:16;;;;;;;0.70;0.70;;;;;;;17.11;48.09;96147.41;5060686;28;20056;-73
2024/03/13 11:44:49;;;;;;;0.70;0.70;;;;;;;16.92;47.59;96131.47;5060186;28;20044;-72
2024/03/13 11:47:22;;;;;;;0.80;0.80;;;;;;;17.54;48.25;96223.63;5064490;28;20048;-72
2024/03/13 11:49:57;;;;;;;0.80;0.80;;;;;;;17.84;48.00;96245.72;5064166;28;20059;-73
2024/03/13 11:52:24;;;;;;;0.70;0.70;;;;;;;17.57;48.48;96175.16;5064761;28;20477;-63
2024/03/13 11:54:51;;;;;;;0.75;0.75;;;;;;;17.62;50.21;96177.44;5064817;28;20056;-72
2024/03/13 11:57:19;;;;;;;0.70;0.70;;;;;;;17.88;52.48;96185.56;5065199;28;20143;-64
2024/03/13 11:59:54;;;;;;;0.70;0.70;;;;;;;18.20;50.23;96212.78;5063516;28;20407;-65
2024/03/13 12:02:31;;;;;;;0.77;0.77;;;;;;;18.32;50.63;96214.84;5063918;28;20059;-70
2024/03/13 12:05:10;;;;;;;0.70;0.70;;;;;;;15.53;51.16;95888.97;5053944;28;20131;-65
2024/03/13 12:07:44;;;;;;;0.80;0.80;;;;;;;18.56;50.85;96221.09;5062681;28;20576;-67